Pilar Observatorio, Argentina
Current Conditions -  °F | °C
As of 2:00 AM on Thursday 27 Nov 2014 (Local Time) from SACO Reporting Station
Clear Clear  
Wind Chill: 59°   Ceiling: Unl
Heat Index: 59°   Visibility: 6mi
Dew Point: 54°   Wind: 5mph
Humidity: 82%   Direction: 320°NW
Pressure: 30.06"   Gusts: NA
Location:  31.67°S, 63.88°W
Report Text: SACO 270500Z 32004KT CAVOK 15/12 Q1018
Loading
Personal Weather Stations






























Interactive Weather Map New forecast layout! Learn more

10-Day Weather Forecast

Advertisements
Track Severe Weather on mobile